Time;durP1;ratioP1;P1;durP2;ratioP2;P2;SDS_P1;SDS_P2;PMS_P1;PMS_P2;Temp;Humidity;BMP_temperature;BMP_pressure;BME280_temperature;BME280_humidity;BME280_pressure;Samples;Min_cycle;Max_cycle;Signal;HPM_P1;HPM_P2
2021/08/26 00:00:59;;;;;;;4.40;2.63;;;10.00;89.90;;;;;;2105435;28;20173;-64
2021/08/26 00:05:58;;;;;;;4.43;2.50;;;9.90;90.30;;;;;;2105287;28;20198;-65
2021/08/26 00:07:01;;;;;;;5.18;3.28;;;9.90;90.40;;;;;;2105496;28;20190;-64
2021/08/26 00:08:02;;;;;;;3.58;3.05;;;9.90;90.40;;;;;;2105377;28;20181;-63
2021/08/26 00:09:03;;;;;;;3.07;2.33;;;9.90;90.40;;;;;;2105097;28;20175;-64
2021/08/26 00:10:06;;;;;;;4.13;2.83;;;9.90;90.40;;;;;;2105239;28;20705;-64
2021/08/26 00:11:07;;;;;;;6.55;3.53;;;9.90;90.50;;;;;;2105272;28;20205;-65
2021/08/26 00:12:11;;;;;;;5.63;3.03;;;9.90;90.60;;;;;;2105265;28;20180;-65
2021/08/26 00:13:13;;;;;;;9.65;3.30;;;10.00;90.80;;;;;;2105184;28;20705;-64
2021/08/26 00:14:17;;;;;;;17.02;3.83;;;9.90;90.80;;;;;;2105210;28;20590;-65
2021/08/26 00:15:18;;;;;;;6.25;2.95;;;9.90;90.70;;;;;;2104725;28;20651;-64
2021/08/26 00:16:52;;;;;;;4.13;2.35;;;9.90;90.60;;;;;;2104660;28;20210;-64
2021/08/26 00:17:53;;;;;;;4.32;2.70;;;9.90;90.50;;;;;;2105329;28;20225;-64
2021/08/26 00:18:54;;;;;;;4.27;3.00;;;10.00;90.50;;;;;;2112777;28;20634;-64
2021/08/26 00:19:55;;;;;;;5.60;3.47;;;10.00;90.60;;;;;;2112963;28;20198;-64
2021/08/26 00:20:56;;;;;;;3.33;2.70;;;10.00;90.80;;;;;;2105309;28;20218;-64
2021/08/26 00:21:57;;;;;;;6.37;3.50;;;10.00;90.80;;;;;;2105146;28;20198;-64
2021/08/26 00:22:57;;;;;;;4.50;2.90;;;10.10;90.80;;;;;;2105244;28;20187;-64
2021/08/26 00:23:58;;;;;;;4.30;2.93;;;10.10;90.80;;;;;;2105158;28;20425;-64
2021/08/26 00:24:59;;;;;;;5.20;3.53;;;10.10;90.80;;;;;;2105062;28;20179;-63
2021/08/26 00:25:59;;;;;;;3.20;2.60;;;10.10;90.80;;;;;;2105193;28;20221;-64
2021/08/26 00:27:00;;;;;;;2.90;2.40;;;10.20;90.90;;;;;;2105151;28;20587;-62
2021/08/26 00:28:01;;;;;;;5.57;3.37;;;10.20;91.00;;;;;;2105088;28;20271;-64
2021/08/26 00:29:04;;;;;;;4.07;3.53;;;10.20;91.00;;;;;;2104891;28;20217;-64
2021/08/26 00:30:05;;;;;;;5.88;3.22;;;10.20;91.10;;;;;;2105043;28;20572;-62
2021/08/26 00:31:06;;;;;;;4.43;3.20;;;10.20;91.10;;;;;;2104985;28;20206;-64
2021/08/26 00:32:07;;;;;;;5.28;3.13;;;10.30;91.30;;;;;;2105064;28;20186;-65
2021/08/26 00:33:09;;;;;;;4.40;2.97;;;10.30;90.70;;;;;;2104947;28;20182;-64
2021/08/26 00:34:09;;;;;;;3.95;2.70;;;10.30;90.40;;;;;;2105124;28;20185;-65
2021/08/26 00:35:11;;;;;;;4.00;2.77;;;10.30;90.30;;;;;;2104885;28;20171;-64
2021/08/26 00:36:11;;;;;;;3.15;2.83;;;10.30;90.10;;;;;;2105155;28;20301;-65
2021/08/26 00:37:12;;;;;;;4.73;2.43;;;10.30;89.90;;;;;;2105093;28;20181;-64
2021/08/26 00:38:13;;;;;;;2.93;2.50;;;10.30;89.80;;;;;;2105109;28;20185;-62
2021/08/26 00:39:13;;;;;;;5.77;2.27;;;10.30;89.70;;;;;;2104735;28;20713;-65
2021/08/26 00:40:14;;;;;;;3.53;2.63;;;10.30;89.60;;;;;;2104904;28;20200;-64
2021/08/26 00:41:20;;;;;;;4.32;3.28;;;10.30;89.60;;;;;;2105142;28;20187;-65
2021/08/26 00:42:22;;;;;;;4.65;2.40;;;10.30;90.00;;;;;;2104963;28;20183;-62
2021/08/26 00:43:23;;;;;;;5.15;3.30;;;10.30;90.40;;;;;;2104971;28;20191;-65
2021/08/26 00:44:24;;;;;;;3.10;2.47;;;10.30;91.00;;;;;;2104978;28;20523;-65
2021/08/26 00:45:25;;;;;;;3.43;2.70;;;10.30;90.40;;;;;;2105018;28;20185;-63
2021/08/26 00:46:26;;;;;;;4.80;3.35;;;10.30;90.50;;;;;;2104979;28;20187;-64
2021/08/26 00:47:27;;;;;;;4.53;3.33;;;10.40;90.40;;;;;;2104954;28;20209;-63
2021/08/26 00:48:29;;;;;;;7.90;3.43;;;10.40;90.40;;;;;;2104987;28;20186;-64
2021/08/26 00:49:30;;;;;;;6.40;3.65;;;10.40;90.40;;;;;;2104621;28;20772;-63
2021/08/26 00:50:31;;;;;;;4.95;2.75;;;10.40;90.50;;;;;;2104355;28;20720;-64
2021/08/26 00:51:33;;;;;;;5.07;3.23;;;10.40;90.50;;;;;;2104128;28;20238;-64
2021/08/26 00:52:37;;;;;;;6.05;3.38;;;10.40;90.40;;;;;;2104322;28;20180;-64
2021/08/26 00:53:39;;;;;;;5.05;3.47;;;10.40;90.40;;;;;;2104302;28;20170;-65
2021/08/26 00:54:40;;;;;;;3.95;3.08;;;10.40;90.40;;;;;;2104986;28;20185;-65
2021/08/26 00:55:41;;;;;;;5.57;3.30;;;10.40;90.50;;;;;;2104843;28;20178;-63
2021/08/26 00:56:41;;;;;;;4.63;2.83;;;10.40;90.40;;;;;;2104937;28;20183;-65
2021/08/26 00:57:42;;;;;;;5.47;2.73;;;10.40;90.40;;;;;;2104994;28;20167;-65
2021/08/26 00:58:48;;;;;;;9.23;2.93;;;10.30;90.50;;;;;;2104909;28;20176;-64
2021/08/26 00:59:50;;;;;;;5.05;3.13;;;10.30;90.40;;;;;;2104002;28;20181;-63
2021/08/26 01:00:58;;;;;;;5.50;3.28;;;10.30;90.40;;;;;;2104197;28;20175;-63
2021/08/26 01:02:05;;;;;;;5.25;2.78;;;10.30;90.40;;;;;;2104803;28;20529;-63
2021/08/26 01:03:10;;;;;;;4.03;2.70;;;10.30;90.30;;;;;;2099049;28;20176;-65
2021/08/26 01:04:37;;;;;;;4.97;3.28;;;10.20;90.40;;;;;;2098692;28;20175;-63
2021/08/26 01:05:49;;;;;;;11.70;3.20;;;10.20;90.50;;;;;;2098849;28;20187;-63
2021/08/26 01:07:06;;;;;;;5.90;3.00;;;10.20;90.60;;;;;;2098831;28;20165;-64
2021/08/26 01:08:34;;;;;;;7.60;2.90;;;10.10;90.70;;;;;;2105485;28;20166;-64
2021/08/26 01:09:44;;;;;;;3.85;2.55;;;10.00;90.80;;;;;;2107352;28;20158;-63
2021/08/26 01:10:54;;;;;;;5.32;3.13;;;10.00;90.80;;;;;;2106938;28;20213;-64
2021/08/26 01:11:56;;;;;;;4.35;2.67;;;10.00;90.70;;;;;;2099838;28;20635;-65
2021/08/26 01:12:59;;;;;;;3.00;2.65;;;10.00;90.50;;;;;;2107090;28;20265;-65
2021/08/26 01:14:01;;;;;;;5.25;3.13;;;10.00;90.60;;;;;;2107170;28;20175;-64
2021/08/26 01:15:03;;;;;;;6.35;3.42;;;9.90;90.60;;;;;;2098863;28;20179;-64
2021/08/26 01:16:14;;;;;;;4.15;2.63;;;9.90;90.70;;;;;;2106936;28;20181;-64
2021/08/26 01:17:26;;;;;;;4.20;2.95;;;9.90;90.70;;;;;;2107659;28;20214;-64
2021/08/26 01:18:27;;;;;;;4.05;2.45;;;9.90;90.60;;;;;;2107729;28;20159;-65
2021/08/26 01:19:27;;;;;;;6.38;3.13;;;9.90;90.70;;;;;;2107196;28;20189;-61
2021/08/26 01:20:28;;;;;;;4.97;3.30;;;9.90;90.80;;;;;;2107509;28;20233;-62
2021/08/26 01:21:30;;;;;;;7.20;3.27;;;9.90;91.00;;;;;;2107715;28;20181;-64
2021/08/26 01:22:32;;;;;;;4.60;3.28;;;9.80;91.10;;;;;;2107491;28;20189;-64
2021/08/26 01:23:36;;;;;;;4.60;2.70;;;9.80;91.20;;;;;;2107092;28;20186;-65
2021/08/26 01:24:37;;;;;;;6.88;3.38;;;9.80;91.30;;;;;;2106898;28;20195;-63
2021/08/26 01:25:43;;;;;;;5.65;3.20;;;9.90;91.20;;;;;;2107003;28;20202;-65
2021/08/26 01:26:51;;;;;;;4.88;3.40;;;9.80;91.10;;;;;;2099339;28;20171;-64
2021/08/26 01:27:59;;;;;;;3.28;2.47;;;9.90;91.10;;;;;;2107068;28;20165;-62
2021/08/26 01:29:03;;;;;;;4.45;2.85;;;9.80;91.20;;;;;;2106601;28;20169;-63
2021/08/26 01:30:07;;;;;;;3.80;3.15;;;9.80;91.10;;;;;;2106845;28;20194;-63
2021/08/26 01:31:08;;;;;;;5.90;3.58;;;9.80;91.10;;;;;;2107456;28;20200;-64
2021/08/26 01:32:09;;;;;;;3.90;2.30;;;9.70;91.10;;;;;;2106922;28;20190;-65
2021/08/26 01:33:10;;;;;;;4.83;3.17;;;9.70;91.00;;;;;;2098522;28;20174;-62
2021/08/26 01:34:18;;;;;;;4.83;2.90;;;9.70;91.00;;;;;;2107058;28;20593;-63
2021/08/26 01:35:24;;;;;;;4.03;3.10;;;9.70;90.90;;;;;;2107421;28;20177;-65
2021/08/26 01:36:30;;;;;;;3.58;2.80;;;9.70;90.80;;;;;;2107584;28;20250;-64
2021/08/26 01:37:31;;;;;;;2.92;2.63;;;9.60;90.70;;;;;;2107490;28;20535;-64
2021/08/26 01:38:32;;;;;;;6.90;2.67;;;9.60;90.60;;;;;;2107496;28;20265;-63
2021/08/26 01:39:32;;;;;;;4.15;3.47;;;9.60;90.60;;;;;;2107190;28;20186;-63
2021/08/26 01:40:40;;;;;;;4.20;2.97;;;9.50;90.70;;;;;;2107499;28;20200;-63
2021/08/26 01:41:53;;;;;;;4.05;2.60;;;9.50;90.80;;;;;;2107370;28;20531;-67
2021/08/26 01:42:53;;;;;;;6.00;3.03;;;9.50;90.80;;;;;;2107453;28;20213;-64
2021/08/26 01:43:54;;;;;;;6.73;3.53;;;9.50;90.90;;;;;;2107354;28;20645;-63
2021/08/26 01:44:56;;;;;;;3.50;2.57;;;9.40;90.90;;;;;;2107798;28;20173;-63
2021/08/26 01:45:57;;;;;;;5.28;3.03;;;9.40;91.00;;;;;;2107461;28;20175;-64
2021/08/26 01:47:08;;;;;;;3.90;3.00;;;9.40;91.20;;;;;;2107371;28;20207;-64
2021/08/26 01:48:08;;;;;;;4.22;2.88;;;9.40;91.10;;;;;;2107313;28;20217;-63
2021/08/26 01:49:09;;;;;;;4.07;3.13;;;9.40;91.30;;;;;;2107140;28;20184;-63
2021/08/26 01:50:10;;;;;;;3.53;2.53;;;9.40;91.30;;;;;;2107380;28;20198;-63
2021/08/26 01:51:11;;;;;;;3.93;2.80;;;9.30;91.40;;;;;;2107196;28;20478;-64
2021/08/26 01:52:23;;;;;;;3.80;3.00;;;9.30;91.30;;;;;;2107284;28;20177;-64
2021/08/26 01:53:24;;;;;;;4.65;3.67;;;9.30;91.30;;;;;;2107538;28;20170;-65
2021/08/26 01:54:25;;;;;;;3.03;2.37;;;9.30;91.30;;;;;;2107339;28;20174;-64
2021/08/26 01:55:26;;;;;;;3.80;2.63;;;9.30;91.20;;;;;;2107500;28;20477;-64
2021/08/26 01:56:26;;;;;;;4.53;3.07;;;9.20;91.10;;;;;;2107142;28;20176;-64
2021/08/26 01:57:30;;;;;;;3.50;2.57;;;9.20;91.10;;;;;;2106772;28;20173;-63
2021/08/26 01:58:30;;;;;;;2.97;2.20;;;9.20;91.20;;;;;;2106708;28;20173;-63
2021/08/26 01:59:33;;;;;;;3.93;2.60;;;9.20;91.40;;;;;;2107294;28;20773;-63
2021/08/26 02:00:34;;;;;;;3.47;3.17;;;9.10;91.50;;;;;;2106673;28;20179;-63
2021/08/26 02:01:35;;;;;;;3.63;2.43;;;9.10;91.50;;;;;;2106884;28;20208;-60
2021/08/26 02:02:35;;;;;;;5.83;3.30;;;9.10;91.50;;;;;;2107303;28;20661;-62
2021/08/26 02:03:37;;;;;;;5.47;2.67;;;9.10;91.50;;;;;;2107384;28;20186;-63
2021/08/26 02:04:38;;;;;;;3.60;2.25;;;9.10;91.50;;;;;;2107154;28;20198;-64
2021/08/26 02:05:39;;;;;;;7.10;3.20;;;9.10;91.60;;;;;;2107293;28;20190;-63
2021/08/26 02:06:40;;;;;;;6.40;3.40;;;9.10;91.60;;;;;;2107212;28;20234;-62
2021/08/26 02:07:46;;;;;;;4.23;2.67;;;9.10;91.60;;;;;;2107257;28;20242;-64
2021/08/26 02:08:47;;;;;;;4.88;3.53;;;9.00;91.80;;;;;;2107159;28;20179;-63
2021/08/26 02:09:47;;;;;;;6.70;2.63;;;9.10;91.80;;;;;;2106945;28;20175;-61
2021/08/26 02:10:48;;;;;;;4.13;2.80;;;9.10;91.70;;;;;;2107058;28;20175;-64
2021/08/26 02:11:49;;;;;;;5.53;3.10;;;9.10;91.70;;;;;;2105679;28;20183;-65
2021/08/26 02:12:50;;;;;;;3.27;2.57;;;9.10;91.70;;;;;;2097235;28;20171;-63
2021/08/26 02:13:51;;;;;;;3.28;2.60;;;9.00;91.70;;;;;;2098510;28;20571;-64
2021/08/26 02:14:52;;;;;;;2.57;2.23;;;9.10;91.80;;;;;;2097713;28;20176;-64
2021/08/26 02:15:52;;;;;;;4.93;3.07;;;9.10;91.80;;;;;;2098791;28;20587;-65
2021/08/26 02:16:54;;;;;;;5.93;3.07;;;9.10;92.00;;;;;;2098607;28;20176;-64
2021/08/26 02:17:54;;;;;;;4.10;2.80;;;9.00;92.10;;;;;;2098715;28;20661;-64
2021/08/26 02:18:55;;;;;;;3.27;2.97;;;9.10;91.90;;;;;;2098391;28;20173;-62
2021/08/26 02:19:56;;;;;;;4.57;2.80;;;9.00;91.90;;;;;;2098644;28;20237;-63
2021/08/26 02:20:56;;;;;;;5.97;3.67;;;9.10;92.00;;;;;;2098786;28;20201;-65
2021/08/26 02:21:57;;;;;;;4.13;2.57;;;9.10;92.00;;;;;;2098748;28;20701;-63
2021/08/26 02:22:58;;;;;;;3.83;2.30;;;9.10;91.80;;;;;;2098739;28;20182;-62
2021/08/26 02:23:58;;;;;;;2.70;2.33;;;9.00;91.70;;;;;;2098722;28;20216;-64
2021/08/26 02:24:59;;;;;;;4.83;2.77;;;9.00;91.70;;;;;;2098661;28;20234;-62
2021/08/26 02:26:00;;;;;;;4.47;2.90;;;9.00;91.70;;;;;;2098645;28;20546;-63
2021/08/26 02:27:01;;;;;;;4.70;2.90;;;8.90;91.50;;;;;;2098623;28;20180;-65
2021/08/26 02:28:01;;;;;;;3.93;2.80;;;8.90;91.40;;;;;;2098706;28;20706;-64
2021/08/26 02:29:03;;;;;;;2.70;2.07;;;8.90;91.40;;;;;;2098458;28;20405;-63
2021/08/26 02:30:10;;;;;;;4.00;2.45;;;8.90;91.30;;;;;;2098556;28;20200;-62
2021/08/26 02:31:10;;;;;;;4.70;2.75;;;8.90;91.40;;;;;;2098397;28;20207;-63
2021/08/26 02:32:11;;;;;;;3.83;2.90;;;8.90;91.50;;;;;;2098536;28;20207;-64
2021/08/26 02:33:12;;;;;;;3.70;3.00;;;8.90;91.60;;;;;;2098609;28;20258;-64
2021/08/26 02:34:12;;;;;;;3.63;3.07;;;8.90;91.60;;;;;;2098603;28;20206;-64
2021/08/26 02:35:13;;;;;;;5.77;3.17;;;8.90;91.80;;;;;;2098601;28;20698;-64
2021/08/26 02:36:14;;;;;;;3.17;2.70;;;8.90;91.90;;;;;;2098510;28;20172;-62
2021/08/26 02:37:15;;;;;;;3.15;2.47;;;8.90;92.10;;;;;;2098518;28;20666;-65
2021/08/26 02:38:15;;;;;;;6.90;3.50;;;8.90;92.20;;;;;;2098741;28;20212;-62
2021/08/26 02:39:16;;;;;;;4.37;3.03;;;8.90;92.30;;;;;;2098340;28;20266;-63
2021/08/26 02:40:17;;;;;;;6.03;3.47;;;8.90;92.30;;;;;;2098538;28;20196;-65
2021/08/26 02:41:18;;;;;;;3.90;3.03;;;8.90;92.90;;;;;;2098665;28;20192;-64
2021/08/26 02:42:19;;;;;;;4.00;3.42;;;8.90;92.40;;;;;;2098555;28;20649;-63
2021/08/26 02:43:20;;;;;;;4.50;2.88;;;8.90;92.30;;;;;;2098504;28;20185;-64
2021/08/26 02:44:20;;;;;;;4.63;3.30;;;8.90;92.30;;;;;;2098519;28;20180;-62
2021/08/26 02:45:21;;;;;;;4.63;3.23;;;8.90;92.40;;;;;;2098470;28;20181;-64
2021/08/26 02:46:22;;;;;;;4.13;2.80;;;8.90;92.50;;;;;;2098555;28;20183;-64
2021/08/26 02:47:22;;;;;;;6.43;3.37;;;8.90;92.40;;;;;;2098357;28;20183;-63
2021/08/26 02:48:23;;;;;;;4.60;3.27;;;8.90;92.30;;;;;;2098632;28;20720;-64
2021/08/26 02:49:24;;;;;;;3.97;2.97;;;9.00;92.40;;;;;;2097565;28;20207;-63
2021/08/26 02:50:24;;;;;;;3.33;3.03;;;8.90;92.50;;;;;;2097842;28;20197;-63
2021/08/26 02:51:25;;;;;;;4.20;3.27;;;8.90;92.60;;;;;;2098320;28;20712;-64
2021/08/26 02:52:26;;;;;;;5.67;3.00;;;8.90;92.60;;;;;;2098503;28;20192;-64
2021/08/26 02:53:27;;;;;;;4.93;2.97;;;8.90;92.60;;;;;;2098490;28;20186;-62
2021/08/26 02:54:27;;;;;;;4.17;3.50;;;9.00;92.60;;;;;;2098311;28;20235;-64
2021/08/26 02:55:28;;;;;;;5.53;2.90;;;9.00;92.60;;;;;;2098437;28;20755;-64
2021/08/26 02:56:29;;;;;;;3.20;2.63;;;9.00;92.60;;;;;;2098421;28;20262;-63
2021/08/26 02:57:29;;;;;;;3.50;2.73;;;9.00;92.60;;;;;;2098433;28;20534;-65
2021/08/26 02:58:30;;;;;;;5.47;2.77;;;9.00;92.70;;;;;;2098347;28;20178;-62
2021/08/26 02:59:31;;;;;;;4.07;2.70;;;8.90;92.60;;;;;;2098337;28;20184;-63
2021/08/26 03:00:32;;;;;;;3.73;2.93;;;8.90;92.40;;;;;;2098250;28;20208;-64
2021/08/26 03:01:32;;;;;;;5.27;3.20;;;9.00;92.50;;;;;;2098351;28;20589;-63
2021/08/26 03:02:33;;;;;;;3.10;2.20;;;8.90;92.40;;;;;;2098425;28;20177;-64
2021/08/26 03:03:33;;;;;;;5.97;2.80;;;8.90;92.20;;;;;;2098369;28;20650;-64
2021/08/26 03:04:34;;;;;;;4.80;3.07;;;8.90;92.10;;;;;;2098347;28;20179;-65
2021/08/26 03:05:35;;;;;;;3.63;2.70;;;8.90;92.10;;;;;;2098437;28;20187;-65
2021/08/26 03:06:36;;;;;;;5.77;3.00;;;8.90;92.00;;;;;;2098344;28;20241;-65
2021/08/26 03:07:36;;;;;;;3.13;2.90;;;8.90;92.10;;;;;;2098335;28;20180;-64
2021/08/26 03:08:37;;;;;;;5.97;3.17;;;8.80;92.10;;;;;;2098391;28;20247;-63
2021/08/26 03:09:38;;;;;;;3.07;2.03;;;8.70;92.20;;;;;;2098038;28;20175;-65
2021/08/26 03:10:38;;;;;;;5.50;2.47;;;8.70;92.30;;;;;;2098283;28;20193;-63
2021/08/26 03:11:39;;;;;;;3.00;2.53;;;8.60;92.30;;;;;;2099310;28;20207;-64
2021/08/26 03:12:40;;;;;;;3.80;2.40;;;8.60;92.30;;;;;;2102366;28;20186;-65
2021/08/26 03:13:40;;;;;;;4.13;2.53;;;8.60;92.20;;;;;;2106869;28;20199;-64
2021/08/26 03:14:41;;;;;;;3.90;2.53;;;8.60;92.30;;;;;;2106662;28;20175;-67
2021/08/26 03:15:42;;;;;;;2.83;2.50;;;8.60;92.40;;;;;;2106784;28;20221;-65
2021/08/26 03:16:43;;;;;;;4.93;3.20;;;8.60;92.40;;;;;;2106615;28;20307;-64
2021/08/26 03:17:43;;;;;;;4.17;3.10;;;8.60;92.40;;;;;;2106671;28;20171;-63
2021/08/26 03:18:44;;;;;;;4.43;2.70;;;8.60;92.40;;;;;;2106634;28;20163;-64
2021/08/26 03:19:45;;;;;;;2.83;2.10;;;8.60;92.30;;;;;;2106442;28;20199;-62
2021/08/26 03:20:47;;;;;;;2.60;2.10;;;8.60;92.40;;;;;;2106672;28;20180;-63
2021/08/26 03:21:47;;;;;;;8.13;3.25;;;8.60;92.30;;;;;;2106732;28;20198;-62
2021/08/26 03:22:49;;;;;;;3.20;2.70;;;8.60;92.10;;;;;;2106618;28;20195;-63
2021/08/26 03:23:49;;;;;;;3.58;2.45;;;8.60;92.10;;;;;;2106725;28;20184;-64
2021/08/26 03:24:50;;;;;;;3.57;2.80;;;8.60;92.00;;;;;;2106576;28;20173;-65
2021/08/26 03:25:52;;;;;;;7.23;2.87;;;8.60;92.00;;;;;;2106515;28;20668;-62
2021/08/26 03:26:52;;;;;;;4.22;3.40;;;8.60;92.20;;;;;;2106716;28;20183;-65
2021/08/26 03:27:54;;;;;;;3.70;3.00;;;8.60;92.30;;;;;;2106512;28;20200;-64
2021/08/26 03:28:54;;;;;;;4.70;2.75;;;8.60;92.30;;;;;;2106343;28;20179;-65
2021/08/26 03:29:55;;;;;;;1.80;1.70;;;8.60;92.10;;;;;;2106439;28;20794;-64
2021/08/26 03:30:56;;;;;;;5.10;3.13;;;8.70;92.20;;;;;;2106444;28;20215;-63
2021/08/26 03:31:57;;;;;;;14.70;3.43;;;8.70;92.20;;;;;;2106478;28;20211;-64
2021/08/26 03:32:58;;;;;;;3.60;2.65;;;8.70;92.30;;;;;;2106551;28;20550;-64
2021/08/26 03:33:58;;;;;;;5.07;2.60;;;8.70;92.20;;;;;;2106586;28;20278;-65
2021/08/26 03:34:59;;;;;;;5.40;2.87;;;8.70;92.30;;;;;;2106664;28;20182;-64
2021/08/26 03:36:01;;;;;;;3.33;2.92;;;8.60;92.30;;;;;;2106496;28;20639;-64
2021/08/26 03:37:01;;;;;;;2.97;2.38;;;8.60;92.30;;;;;;2106468;28;20180;-65
2021/08/26 03:38:03;;;;;;;3.93;3.03;;;8.60;92.30;;;;;;2106570;28;20529;-62
2021/08/26 03:39:03;;;;;;;7.88;3.00;;;8.60;92.30;;;;;;2106272;28;20175;-64
2021/08/26 03:40:05;;;;;;;4.90;3.33;;;8.60;92.30;;;;;;2106400;28;20199;-63
2021/08/26 03:41:06;;;;;;;4.32;3.08;;;8.60;92.50;;;;;;2106477;28;20194;-63
2021/08/26 03:42:06;;;;;;;4.93;3.30;;;8.50;92.50;;;;;;2106442;28;20190;-63
2021/08/26 03:43:07;;;;;;;4.40;3.37;;;8.50;92.60;;;;;;2106467;28;20268;-65
2021/08/26 03:44:08;;;;;;;5.00;2.77;;;8.50;92.60;;;;;;2106349;28;20186;-63
2021/08/26 03:45:09;;;;;;;4.97;2.97;;;8.50;92.60;;;;;;2106419;28;20184;-63
2021/08/26 03:46:10;;;;;;;6.13;3.47;;;8.50;92.50;;;;;;2106197;28;20658;-63
2021/08/26 03:47:11;;;;;;;3.53;2.40;;;8.50;92.50;;;;;;2106377;28;20176;-64
2021/08/26 03:48:12;;;;;;;3.65;2.88;;;8.50;92.60;;;;;;2106364;28;20180;-64
2021/08/26 03:49:13;;;;;;;5.57;3.10;;;8.50;92.50;;;;;;2106171;28;20727;-64
2021/08/26 03:50:13;;;;;;;3.73;2.80;;;8.50;92.50;;;;;;2106434;28;20259;-63
2021/08/26 03:51:14;;;;;;;4.50;2.97;;;8.50;92.60;;;;;;2106413;28;20216;-64
2021/08/26 03:52:15;;;;;;;4.40;3.23;;;8.50;92.50;;;;;;2106489;28;20175;-63
2021/08/26 03:53:16;;;;;;;5.53;3.40;;;8.50;92.60;;;;;;2106478;28;20255;-63
2021/08/26 03:54:16;;;;;;;4.33;2.90;;;8.50;92.50;;;;;;2106522;28;20184;-63
2021/08/26 03:55:17;;;;;;;5.03;3.63;;;8.50;92.50;;;;;;2105858;28;20181;-63
2021/08/26 03:56:17;;;;;;;3.77;3.03;;;8.50;92.50;;;;;;2105800;28;20179;-64
2021/08/26 03:57:18;;;;;;;6.07;3.20;;;8.50;92.70;;;;;;2106522;28;20210;-62
2021/08/26 03:58:19;;;;;;;2.77;2.20;;;8.50;92.70;;;;;;2106495;28;20232;-63
2021/08/26 03:59:20;;;;;;;4.93;3.03;;;8.50;92.90;;;;;;2106368;28;20210;-64
2021/08/26 04:00:20;;;;;;;3.07;2.60;;;8.40;93.20;;;;;;2106277;28;20334;-64
2021/08/26 04:01:21;;;;;;;5.90;3.60;;;8.40;93.30;;;;;;2106429;28;20200;-63
2021/08/26 04:02:23;;;;;;;3.23;2.93;;;8.40;93.20;;;;;;2106467;28;20607;-64
2021/08/26 04:03:23;;;;;;;4.18;2.50;;;8.40;93.10;;;;;;2106653;28;20184;-64
2021/08/26 04:04:25;;;;;;;3.00;2.70;;;8.40;93.00;;;;;;2106421;28;20214;-63
2021/08/26 04:05:25;;;;;;;5.40;3.55;;;8.40;93.00;;;;;;2106408;28;20171;-62
2021/08/26 04:06:26;;;;;;;6.03;3.10;;;8.50;92.90;;;;;;2106422;28;20191;-63
2021/08/26 04:07:31;;;;;;;4.97;3.43;;;8.50;92.90;;;;;;2106539;28;20308;-62
2021/08/26 04:08:31;;;;;;;3.10;2.80;;;8.50;92.90;;;;;;2105800;28;20233;-62
2021/08/26 04:09:32;;;;;;;4.13;3.13;;;8.50;92.80;;;;;;2105569;28;20191;-64
2021/08/26 04:10:33;;;;;;;6.03;2.97;;;8.50;92.90;;;;;;2106476;28;20226;-63
2021/08/26 04:11:33;;;;;;;4.23;2.67;;;8.40;92.80;;;;;;2106379;28;20444;-63
2021/08/26 04:12:35;;;;;;;5.73;3.03;;;8.40;92.70;;;;;;2106611;28;20294;-64
2021/08/26 04:13:36;;;;;;;5.50;3.30;;;8.50;92.70;;;;;;2106292;28;20183;-64
2021/08/26 04:14:36;;;;;;;7.90;3.95;;;8.50;93.00;;;;;;2106397;28;20799;-65
2021/08/26 04:15:37;;;;;;;5.43;3.37;;;8.50;93.10;;;;;;2106381;28;20194;-64
2021/08/26 04:16:38;;;;;;;3.93;3.30;;;8.50;93.10;;;;;;2106470;28;20674;-64
2021/08/26 04:17:39;;;;;;;4.00;3.00;;;8.60;93.10;;;;;;2106323;28;20182;-63
2021/08/26 04:18:39;;;;;;;6.43;3.90;;;8.60;93.10;;;;;;2106534;28;20183;-63
2021/08/26 04:19:40;;;;;;;4.27;2.90;;;8.60;93.10;;;;;;2106053;28;20175;-64
2021/08/26 04:20:41;;;;;;;6.27;3.97;;;8.70;93.30;;;;;;2106395;28;20176;-64
2021/08/26 04:21:42;;;;;;;5.70;3.63;;;8.80;93.50;;;;;;2105715;28;20668;-63
2021/08/26 04:22:42;;;;;;;4.60;2.80;;;8.80;93.40;;;;;;2105834;28;20185;-65
2021/08/26 04:23:43;;;;;;;4.13;3.23;;;8.80;93.30;;;;;;2106485;28;20356;-64
2021/08/26 04:24:44;;;;;;;5.23;3.27;;;8.80;93.20;;;;;;2106407;28;20177;-63
2021/08/26 04:25:44;;;;;;;4.27;3.40;;;8.80;93.00;;;;;;2106393;28;20592;-64
2021/08/26 04:26:45;;;;;;;5.30;3.90;;;8.90;93.20;;;;;;2106370;28;20184;-64
2021/08/26 04:27:46;;;;;;;4.33;3.20;;;8.90;93.20;;;;;;2106323;28;20187;-63
2021/08/26 04:28:47;;;;;;;3.60;3.13;;;8.90;93.10;;;;;;2106317;28;20277;-64
2021/08/26 04:29:47;;;;;;;4.03;2.90;;;8.90;92.90;;;;;;2105522;28;20647;-64
2021/08/26 04:30:48;;;;;;;3.43;2.80;;;8.90;92.90;;;;;;2105792;28;20273;-62
2021/08/26 04:31:49;;;;;;;3.73;3.33;;;8.90;92.90;;;;;;2106227;28;20681;-63
2021/08/26 04:32:49;;;;;;;5.57;3.03;;;8.90;92.90;;;;;;2106275;28;20178;-64
2021/08/26 04:33:50;;;;;;;6.27;3.63;;;8.80;93.00;;;;;;2106367;28;20177;-62
2021/08/26 04:34:51;;;;;;;4.93;2.87;;;8.80;93.00;;;;;;2106295;28;20184;-64
2021/08/26 04:35:51;;;;;;;5.70;3.50;;;8.80;93.00;;;;;;2106301;28;20511;-63
2021/08/26 04:36:52;;;;;;;4.03;3.30;;;8.80;93.50;;;;;;2106328;28;20642;-64
2021/08/26 04:37:53;;;;;;;4.93;3.27;;;8.80;93.10;;;;;;2106692;28;20225;-64
2021/08/26 04:38:53;;;;;;;4.83;3.40;;;8.80;93.10;;;;;;2107843;28;20175;-63
2021/08/26 04:39:54;;;;;;;4.07;3.13;;;8.80;93.10;;;;;;2107742;28;20172;-64
2021/08/26 04:40:55;;;;;;;13.93;2.70;;;8.80;93.10;;;;;;2107898;28;20182;-64
2021/08/26 04:41:55;;;;;;;3.73;2.87;;;8.80;93.10;;;;;;2107749;28;20179;-63
2021/08/26 04:42:56;;;;;;;3.33;2.47;;;8.80;93.20;;;;;;2107856;28;20180;-62
2021/08/26 04:43:57;;;;;;;3.97;3.03;;;8.70;93.00;;;;;;2107659;28;20541;-63
2021/08/26 04:44:58;;;;;;;3.50;2.70;;;8.70;92.90;;;;;;2107772;28;20199;-61
2021/08/26 04:45:58;;;;;;;3.57;2.63;;;8.60;92.70;;;;;;2107831;28;20723;-63
2021/08/26 04:46:59;;;;;;;4.57;3.07;;;8.60;92.70;;;;;;2107804;28;20177;-63
2021/08/26 04:48:00;;;;;;;3.13;2.53;;;8.60;92.70;;;;;;2107845;28;20218;-63
2021/08/26 04:49:01;;;;;;;4.37;3.43;;;8.60;92.60;;;;;;2107522;28;20181;-62
2021/08/26 04:50:03;;;;;;;3.53;2.43;;;8.60;92.60;;;;;;2107792;28;20729;-64
2021/08/26 04:51:04;;;;;;;4.78;2.95;;;8.70;92.60;;;;;;2107500;28;20677;-63
2021/08/26 04:52:05;;;;;;;7.10;3.43;;;8.70;92.60;;;;;;2107857;28;20179;-63
2021/08/26 04:53:06;;;;;;;5.43;3.28;;;8.70;92.70;;;;;;2107786;28;20182;-63
2021/08/26 04:54:06;;;;;;;5.73;2.63;;;8.70;92.70;;;;;;2107853;28;20664;-62
2021/08/26 04:55:08;;;;;;;4.10;2.97;;;8.70;92.70;;;;;;2107701;28;20171;-64
2021/08/26 04:56:09;;;;;;;3.45;2.67;;;8.70;92.50;;;;;;2098518;28;20182;-64
2021/08/26 04:57:09;;;;;;;3.83;2.77;;;8.70;92.60;;;;;;2095401;28;20208;-64
2021/08/26 04:58:10;;;;;;;2.90;2.47;;;8.70;92.60;;;;;;2096611;28;20186;-65
2021/08/26 04:59:11;;;;;;;4.13;2.80;;;8.80;92.50;;;;;;2101309;28;20267;-63
2021/08/26 05:00:12;;;;;;;4.57;3.27;;;8.80;92.40;;;;;;2101951;28;20672;-65
2021/08/26 05:01:13;;;;;;;3.28;2.65;;;8.90;92.30;;;;;;2104869;28;20187;-63
2021/08/26 05:02:13;;;;;;;3.30;2.40;;;8.90;92.20;;;;;;2107700;28;20175;-64
2021/08/26 05:03:14;;;;;;;4.90;3.13;;;9.00;92.20;;;;;;2107621;28;20609;-62
2021/08/26 05:04:20;;;;;;;3.70;2.80;;;9.00;92.30;;;;;;2107643;28;20189;-64
2021/08/26 05:05:21;;;;;;;4.35;2.60;;;9.00;92.40;;;;;;2107538;28;20182;-63
2021/08/26 05:06:22;;;;;;;4.67;3.00;;;9.10;92.30;;;;;;2107472;28;20185;-64
2021/08/26 05:07:22;;;;;;;4.70;2.53;;;9.00;92.10;;;;;;2107490;28;20187;-63
2021/08/26 05:08:23;;;;;;;2.53;2.17;;;9.00;92.40;;;;;;2107672;28;20183;-63
2021/08/26 05:09:24;;;;;;;7.50;2.93;;;9.00;92.30;;;;;;2106804;28;20542;-64
2021/08/26 05:10:24;;;;;;;8.00;3.03;;;9.00;92.20;;;;;;2107489;28;20198;-64
2021/08/26 05:11:25;;;;;;;3.67;2.67;;;9.00;92.00;;;;;;2107393;28;20700;-63
2021/08/26 05:12:26;;;;;;;5.77;3.33;;;9.10;92.00;;;;;;2107570;28;20235;-64
2021/08/26 05:13:26;;;;;;;3.37;1.90;;;9.10;91.70;;;;;;2107411;28;20667;-64
2021/08/26 05:14:28;;;;;;;7.03;3.53;;;9.20;91.70;;;;;;2107594;28;20511;-63
2021/08/26 05:15:28;;;;;;;3.35;2.42;;;9.10;91.50;;;;;;2107345;28;20571;-64
2021/08/26 05:16:29;;;;;;;4.60;2.80;;;9.20;91.70;;;;;;2107657;28;20272;-63
2021/08/26 05:17:30;;;;;;;8.30;3.23;;;9.20;91.70;;;;;;2107336;28;20686;-64
2021/08/26 05:18:30;;;;;;;4.13;2.60;;;9.30;91.50;;;;;;2107486;28;20179;-63
2021/08/26 05:19:31;;;;;;;4.03;2.83;;;9.30;91.40;;;;;;2106742;28;20666;-64
2021/08/26 05:20:32;;;;;;;4.07;2.87;;;9.40;91.40;;;;;;2107498;28;20307;-64
2021/08/26 05:21:33;;;;;;;4.30;3.40;;;9.50;91.50;;;;;;2105546;28;20651;-63
2021/08/26 05:22:33;;;;;;;5.57;2.50;;;9.60;91.40;;;;;;2099125;28;20257;-64
2021/08/26 05:23:34;;;;;;;5.93;3.10;;;9.60;91.40;;;;;;2099013;28;20595;-65
2021/08/26 05:24:35;;;;;;;5.67;3.13;;;9.70;91.30;;;;;;2099073;28;20240;-63
2021/08/26 05:25:36;;;;;;;4.63;3.47;;;9.70;91.10;;;;;;2098977;28;20186;-63
2021/08/26 05:26:37;;;;;;;7.43;3.53;;;9.70;91.10;;;;;;2098273;28;20190;-64
2021/08/26 05:27:37;;;;;;;2.88;2.05;;;9.70;91.10;;;;;;2098330;28;20274;-64
2021/08/26 05:28:38;;;;;;;3.63;2.50;;;9.80;91.00;;;;;;2098835;28;20181;-63
2021/08/26 05:29:39;;;;;;;6.80;3.13;;;9.80;91.10;;;;;;2098287;28;20630;-63